Aérodrome :
LOGIN :

S'inscrire | Disclaimer

   EN    FR    IT 

 










Légende :    VFR   VFR Marginal   IFR   IFR Intensif   IFR Très Intensif
Visi : 
Plafond : 
>= 8 km
>= 3000ft
5 à 8 km
1000 à 3000 ft
1500m à 5 km
500 à 1000 ft
800 à 1500m
200 à 500 ft
< 800m
< 200 ft
Symboles :   Orages  Brouillard  Fortes neiges  Fortes précipitations  Vent > 20 kt
SIGMETs :   Divers  Orages  Givrage  Turbulence  Onde Orograph.  Cendres Volcan.







- Altitude de l'aérodrome : 863 ft
- Code IATA : ZAZ


LEZG - Zaragoza Aragon

DERNIER METAR :
  • 171900Z 26010KT CAVOK 13/01 Q1019

METARs EXPIRÉS :
  • 171830Z 27009KT CAVOK 13/01 Q1019
  • 171800Z 22005KT CAVOK 11/01 Q1019
  • 171730Z 22007KT CAVOK 12/01 Q1019
  • 171700Z 21004KT CAVOK 12/01 Q1019
  • 171630Z 24003KT CAVOK 15/02 Q1019

TAF TAF LEZG
Valide du 17 à 18h jusqu'au 18 à 18h UTC


171700Z 1718/1818 29006KT 9999 FEW040 TX18/1814Z TN05/1806Z
BECMG 1718/1720 29011KT
TEMPO 1810/1816 30015G27KT
Pas de NOTAMs connus pour ce terrain.



MET'MAP, la Météo Aéronautique d'un coup d'oeil ! - Copyright ORBIFLY Décembre 2007 - Disclaimer

ORBIFLY MET'MAP TEAM :

Programmation & Développement : Alexandra Zaïnal
Conception & Développement : Baudouin d'Aumeries
Co-Programmation & Développement : Marc-Olivier Méhu
Soutien technique & logistique : Manuel Goepfert

Contact : metmap@orbifly.com




SOURCES & CREDITS :

   NOAA